Time;durP1;ratioP1;P1;durP2;ratioP2;P2;SDS_P1;SDS_P2;PMS_P1;PMS_P2;Temp;Humidity;BMP_temperature;BMP_pressure;BME280_temperature;BME280_humidity;BME280_pressure;Samples;Min_cycle;Max_cycle;Signal;HPM_P1;HPM_P2
2022/07/31 00:00:27;;;;;;;3.88;2.80;;;;;;;27.97;31.30;101359.25;5077244;28;20590;-68
2022/07/31 00:02:55;;;;;;;4.85;2.90;;;;;;;27.94;31.15;101359.63;5068139;28;20103;-68
2022/07/31 00:05:24;;;;;;;5.40;2.90;;;;;;;27.94;30.80;101358.78;5068933;28;20135;-68
2022/07/31 00:07:53;;;;;;;4.40;2.78;;;;;;;27.93;30.97;101359.84;5079087;28;20045;-68
2022/07/31 00:10:21;;;;;;;4.30;2.88;;;;;;;27.89;30.92;101361.31;5069621;28;20049;-68
2022/07/31 00:12:51;;;;;;;6.55;2.80;;;;;;;27.89;30.98;101364.97;5075847;28;20571;-69
2022/07/31 00:15:20;;;;;;;5.40;2.92;;;;;;;27.85;31.01;101358.06;5051051;28;20075;-68
2022/07/31 00:17:49;;;;;;;4.15;2.58;;;;;;;27.84;30.88;101361.91;5068261;28;20033;-68
2022/07/31 00:20:18;;;;;;;4.30;2.80;;;;;;;27.82;30.97;101357.63;5070169;28;20080;-68
2022/07/31 00:22:47;;;;;;;4.07;2.60;;;;;;;27.80;30.98;101362.53;5067597;28;20049;-68
2022/07/31 00:25:17;;;;;;;4.53;2.83;;;;;;;27.78;31.31;101357.16;5066144;28;20040;-68
2022/07/31 00:27:45;;;;;;;3.65;2.67;;;;;;;27.76;31.22;101352.84;5068741;28;20401;-68
2022/07/31 00:30:16;;;;;;;4.55;2.67;;;;;;;27.76;31.04;101350.03;5077034;28;20071;-68
2022/07/31 00:32:44;;;;;;;4.63;2.72;;;;;;;27.73;30.82;101361.63;5055492;28;20128;-68
2022/07/31 00:35:13;;;;;;;4.38;2.63;;;;;;;27.71;31.01;101350.66;5048890;28;20044;-68
2022/07/31 00:37:43;;;;;;;4.82;2.67;;;;;;;27.70;31.06;101342.50;5072822;28;20044;-68
2022/07/31 00:40:14;;;;;;;4.93;2.72;;;;;;;27.71;31.08;101349.81;5077851;28;20063;-68
2022/07/31 00:42:43;;;;;;;3.85;2.92;;;;;;;27.64;31.20;101335.81;5052094;28;20094;-68
2022/07/31 00:45:11;;;;;;;3.95;2.80;;;;;;;27.64;31.04;101331.09;5067064;28;20048;-68
2022/07/31 00:47:42;;;;;;;4.32;2.95;;;;;;;27.64;31.15;101339.47;5081094;28;20501;-68
2022/07/31 00:50:11;;;;;;;4.20;2.55;;;;;;;27.62;31.01;101329.56;5048101;28;20094;-68
2022/07/31 00:52:39;;;;;;;3.60;2.13;;;;;;;27.59;31.40;101328.03;5071212;28;20102;-68
2022/07/31 00:55:08;;;;;;;3.72;2.60;;;;;;;27.57;31.14;101334.91;5052004;28;20131;-68
2022/07/31 00:57:36;;;;;;;5.05;2.40;;;;;;;27.54;31.05;101329.72;5070878;28;20044;-68
2022/07/31 01:00:05;;;;;;;3.42;2.47;;;;;;;27.52;31.32;101327.06;5080421;28;20102;-68
2022/07/31 01:02:34;;;;;;;4.10;2.47;;;;;;;27.49;31.37;101327.50;5077290;28;20106;-68
2022/07/31 01:05:04;;;;;;;3.72;2.40;;;;;;;27.49;31.26;101324.72;5059804;28;20471;-68
2022/07/31 01:07:32;;;;;;;4.72;2.70;;;;;;;27.45;30.95;101323.38;5059398;28;20052;-68
2022/07/31 01:10:06;;;;;;;3.22;2.10;;;;;;;27.45;31.36;101328.09;5052244;28;20044;-68
2022/07/31 01:12:43;;;;;;;3.40;2.30;;;;;;;27.43;31.26;101330.22;5075757;28;20119;-68
2022/07/31 01:15:14;;;;;;;4.75;2.35;;;;;;;27.36;31.49;101327.38;5069347;28;20051;-68
2022/07/31 01:17:46;;;;;;;3.60;2.40;;;;;;;27.36;31.41;101332.09;5073088;28;20040;-68
2022/07/31 01:20:16;;;;;;;4.53;2.85;;;;;;;27.33;31.45;101332.50;5069406;28;20087;-68
2022/07/31 01:23:13;;;;;;;4.68;2.60;;;;;;;27.24;31.14;101324.28;5052075;28;20048;-68
2022/07/31 01:26:03;;;;;;;4.88;2.30;;;;;;;27.23;31.75;101330.03;5077238;28;20267;-68
2022/07/31 01:29:09;;;;;;;3.22;2.20;;;;;;;27.13;31.52;101327.59;5065141;28;20040;-68
2022/07/31 01:31:45;;;;;;;4.47;2.10;;;;;;;27.14;31.69;101320.97;5065277;28;20059;-68
2022/07/31 01:34:23;;;;;;;4.55;2.60;;;;;;;27.12;31.72;101319.41;5062745;28;20051;-68
2022/07/31 01:36:59;;;;;;;4.68;2.30;;;;;;;27.09;31.89;101322.63;5085424;28;20044;-68
2022/07/31 01:39:32;;;;;;;3.63;2.28;;;;;;;27.06;32.17;101320.22;5055587;28;20078;-68
2022/07/31 01:42:05;;;;;;;3.20;2.33;;;;;;;27.02;31.90;101319.75;5062468;28;20032;-68
2022/07/31 01:44:43;;;;;;;3.83;2.50;;;;;;;27.00;32.17;101315.44;5058324;28;20048;-68
2022/07/31 01:47:15;;;;;;;3.70;2.40;;;;;;;26.96;32.12;101312.19;5072268;28;20414;-68
2022/07/31 01:49:44;;;;;;;4.97;2.53;;;;;;;26.91;32.15;101311.94;5068856;28;20044;-68
2022/07/31 01:52:14;;;;;;;3.97;2.38;;;;;;;26.91;32.06;101311.94;5068728;28;20071;-68
2022/07/31 01:54:45;;;;;;;3.92;2.70;;;;;;;26.87;32.16;101311.41;5051272;28;20058;-67
2022/07/31 01:57:16;;;;;;;4.53;2.58;;;;;;;26.86;31.91;101312.47;5065043;28;20110;-67
2022/07/31 01:59:53;;;;;;;4.00;2.50;;;;;;;26.83;32.27;101314.81;5066536;28;20140;-68
2022/07/31 02:02:42;;;;;;;3.63;2.50;;;;;;;26.77;31.98;101308.09;5068948;28;20045;-67
2022/07/31 02:05:12;;;;;;;4.20;2.28;;;;;;;26.75;32.17;101314.94;5064458;28;20044;-67
2022/07/31 02:07:53;;;;;;;4.47;2.33;;;;;;;26.73;32.56;101314.25;5057940;28;20512;-68
2022/07/31 02:10:50;;;;;;;4.45;2.45;;;;;;;26.62;32.22;101300.84;5071208;28;20408;-68
2022/07/31 02:13:19;;;;;;;3.67;2.10;;;;;;;26.59;32.25;101304.91;5057412;28;20413;-68
2022/07/31 02:15:50;;;;;;;4.93;2.15;;;;;;;26.58;32.70;101305.94;5057345;28;20059;-68
2022/07/31 02:18:22;;;;;;;5.45;2.50;;;;;;;26.54;32.37;101304.59;5067069;28;20466;-69
2022/07/31 02:21:10;;;;;;;3.92;2.30;;;;;;;26.48;32.30;101303.47;5050945;28;20052;-68
2022/07/31 02:23:38;;;;;;;4.72;2.75;;;;;;;26.45;32.59;101301.06;5068559;28;20454;-68
2022/07/31 02:26:07;;;;;;;3.50;2.35;;;;;;;26.42;32.43;101301.47;5051429;28;20068;-68
2022/07/31 02:28:38;;;;;;;3.70;2.38;;;;;;;26.40;32.44;101297.16;5055619;28;20037;-67
2022/07/31 02:31:11;;;;;;;3.45;2.28;;;;;;;26.39;33.22;101303.78;5063235;28;20059;-69
2022/07/31 02:33:42;;;;;;;3.70;2.55;;;;;;;26.33;32.67;101299.00;5050978;28;20033;-68
2022/07/31 02:36:12;;;;;;;4.38;2.60;;;;;;;26.29;33.10;101298.50;5074212;28;20497;-69
2022/07/31 02:38:42;;;;;;;3.20;2.40;;;;;;;26.24;32.87;101301.00;5077533;28;20067;-68
2022/07/31 02:41:12;;;;;;;3.67;2.50;;;;;;;26.21;32.70;101287.44;5067268;28;20048;-69
2022/07/31 02:43:41;;;;;;;3.95;2.30;;;;;;;26.19;33.32;101294.28;5078696;28;20428;-69
2022/07/31 02:46:37;;;;;;;4.15;2.63;;;;;;;26.16;33.23;101289.97;5065306;28;20052;-69
2022/07/31 02:49:06;;;;;;;3.63;2.35;;;;;;;26.12;33.12;101295.03;5068505;28;20052;-68
2022/07/31 02:51:34;;;;;;;3.25;2.22;;;;;;;26.11;33.18;101296.09;5062296;28;20040;-68
2022/07/31 02:54:10;;;;;;;3.33;2.45;;;;;;;26.08;33.26;101295.63;5049693;28;20051;-69
2022/07/31 02:56:39;;;;;;;4.28;2.30;;;;;;;26.08;33.01;101299.28;5069322;28;20051;-68
2022/07/31 02:59:07;;;;;;;4.57;2.40;;;;;;;26.05;33.65;101296.88;5057275;28;20052;-68
2022/07/31 03:01:53;;;;;;;3.33;2.42;;;;;;;26.06;33.23;101306.94;5056649;28;20037;-68
2022/07/31 03:04:23;;;;;;;3.80;2.20;;;;;;;26.04;33.68;101295.13;5049367;28;20048;-68
2022/07/31 03:06:52;;;;;;;3.85;2.35;;;;;;;26.05;33.48;101298.78;5050666;28;20083;-68
2022/07/31 03:09:20;;;;;;;3.60;2.40;;;;;;;26.05;33.32;101291.31;5049864;28;20464;-69
2022/07/31 03:11:52;;;;;;;4.47;2.20;;;;;;;26.05;33.37;101291.31;5050466;28;20051;-68
2022/07/31 03:14:24;;;;;;;2.88;2.20;;;;;;;26.09;33.41;101295.44;5049015;28;20072;-68
2022/07/31 03:17:02;;;;;;;3.15;2.28;;;;;;;26.11;33.08;101301.66;5067583;28;20075;-67
2022/07/31 03:19:32;;;;;;;3.22;2.00;;;;;;;26.10;33.59;101296.31;5058284;28;20076;-69
2022/07/31 03:22:00;;;;;;;3.97;2.42;;;;;;;26.12;33.33;101296.94;5068240;28;20029;-69
2022/07/31 03:24:29;;;;;;;3.50;2.45;;;;;;;26.13;33.23;101296.75;5069367;28;20377;-68
2022/07/31 03:26:58;;;;;;;5.05;2.53;;;;;;;26.14;33.61;101290.16;5070728;28;20067;-69
2022/07/31 03:29:27;;;;;;;3.75;2.45;;;;;;;26.16;33.46;101295.53;5072853;28;20566;-69
2022/07/31 03:32:12;;;;;;;3.90;2.40;;;;;;;26.20;33.59;101295.97;5069555;28;20527;-69
2022/07/31 03:34:40;;;;;;;3.88;2.30;;;;;;;26.20;33.17;101301.53;5075753;28;20044;-69
2022/07/31 03:37:09;;;;;;;3.92;2.40;;;;;;;26.21;33.19;101300.50;5078573;28;20070;-69
2022/07/31 03:39:37;;;;;;;3.53;2.40;;;;;;;26.21;33.25;101295.78;5050917;28;20467;-69
2022/07/31 03:42:09;;;;;;;3.65;2.08;;;;;;;26.23;33.54;101301.16;5050491;28;20271;-69
2022/07/31 03:44:48;;;;;;;4.40;2.42;;;;;;;26.25;33.46;101299.06;5048738;28;20122;-69
2022/07/31 03:47:17;;;;;;;3.90;2.60;;;;;;;26.27;33.24;101294.22;5055610;28;20056;-69
2022/07/31 03:49:46;;;;;;;4.38;2.05;;;;;;;26.26;33.38;101293.34;5061557;28;20066;-69
2022/07/31 03:52:15;;;;;;;4.90;2.42;;;;;;;26.27;33.75;101289.50;5063404;28;20047;-69
2022/07/31 03:54:43;;;;;;;3.60;2.25;;;;;;;26.27;33.95;101289.50;5056821;28;20146;-69
2022/07/31 03:57:16;;;;;;;3.25;2.15;;;;;;;26.30;34.39;101294.66;5055063;28;20072;-69
2022/07/31 03:59:48;;;;;;;4.35;2.40;;;;;;;26.29;34.02;101287.38;5062260;28;20036;-69
2022/07/31 04:02:18;;;;;;;4.30;2.65;;;;;;;26.32;34.39;101289.78;5067823;28;20109;-69
2022/07/31 04:04:49;;;;;;;5.30;2.40;;;;;;;26.30;34.16;101299.38;5056160;28;20052;-69
2022/07/31 04:07:17;;;;;;;4.65;2.45;;;;;;;26.32;34.33;101294.47;5068738;28;20464;-69
2022/07/31 04:09:45;;;;;;;4.10;2.67;;;;;;;26.34;33.97;101297.94;5065213;28;20041;-69
2022/07/31 04:12:15;;;;;;;3.55;2.35;;;;;;;26.34;33.90;101300.72;5068204;28;20127;-69
2022/07/31 04:14:43;;;;;;;4.38;2.60;;;;;;;26.34;33.77;101307.16;5074923;28;20110;-69
2022/07/31 04:17:11;;;;;;;4.50;2.53;;;;;;;26.34;34.02;101304.38;5067288;28;20090;-69
2022/07/31 04:19:40;;;;;;;4.43;2.47;;;;;;;26.38;34.08;101304.81;5068596;28;20443;-69
2022/07/31 04:22:08;;;;;;;3.80;2.28;;;;;;;26.37;33.88;101308.66;5069783;28;20393;-69
2022/07/31 04:24:37;;;;;;;3.35;2.33;;;;;;;26.37;34.11;101303.97;5075448;28;20086;-69
2022/07/31 04:27:15;;;;;;;5.05;2.50;;;;;;;26.37;33.79;101301.19;5053774;28;20047;-68
2022/07/31 04:29:45;;;;;;;4.82;2.63;;;;;;;26.38;34.01;101302.03;5061164;28;20051;-68
2022/07/31 04:32:14;;;;;;;5.05;2.45;;;;;;;26.38;34.03;101296.47;5064885;28;20053;-68
2022/07/31 04:34:55;;;;;;;3.33;2.47;;;;;;;26.39;34.19;101299.06;5064433;28;20067;-68
2022/07/31 04:37:23;;;;;;;5.05;2.78;;;;;;;26.38;33.94;101294.56;5071800;28;20047;-69
2022/07/31 04:39:51;;;;;;;4.82;2.70;;;;;;;26.39;34.23;101296.28;5071509;28;20500;-68
2022/07/31 04:42:20;;;;;;;3.90;2.60;;;;;;;26.40;34.42;101305.50;5072851;28;20105;-68
2022/07/31 04:44:48;;;;;;;3.63;2.60;;;;;;;26.40;33.99;101305.50;5070509;28;20447;-68
2022/07/31 04:47:16;;;;;;;3.70;2.33;;;;;;;26.41;34.33;101307.22;5072067;28;20048;-68
2022/07/31 04:49:48;;;;;;;4.22;2.22;;;;;;;26.39;34.31;101306.56;5061027;28;20091;-68
2022/07/31 04:52:18;;;;;;;6.18;2.30;;;;;;;26.43;33.85;101317.13;5072458;28;20044;-68
2022/07/31 04:54:49;;;;;;;3.80;2.10;;;;;;;26.41;34.31;101312.81;5052341;28;20111;-68
2022/07/31 04:57:17;;;;;;;4.50;2.20;;;;;;;26.42;33.93;101312.63;5071249;28;20059;-68
2022/07/31 04:59:49;;;;;;;3.90;2.17;;;;;;;26.42;34.35;101308.97;5078091;28;20040;-68
2022/07/31 05:02:28;;;;;;;4.55;1.90;;;;;;;26.44;33.76;101307.69;5101576;28;20044;-68
2022/07/31 05:04:57;;;;;;;3.67;1.90;;;;;;;26.46;33.82;101307.50;5060377;28;20068;-68
2022/07/31 05:07:33;;;;;;;5.47;2.13;;;;;;;26.49;33.79;101304.34;5073072;28;20134;-68
2022/07/31 05:10:06;;;;;;;2.90;1.98;;;;;;;26.49;33.78;101304.34;5057916;28;20066;-69
2022/07/31 05:12:36;;;;;;;2.90;1.83;;;;;;;26.49;33.88;101307.97;5057290;28;20041;-68
2022/07/31 05:15:06;;;;;;;3.05;1.70;;;;;;;26.51;33.82;101311.44;5065438;28;20040;-68
2022/07/31 05:17:34;;;;;;;5.00;2.17;;;;;;;26.51;33.83;101307.78;5070030;28;20052;-69
2022/07/31 05:20:20;;;;;;;3.00;1.67;;;;;;;26.51;33.91;101310.59;5069394;28;20047;-68
2022/07/31 05:23:04;;;;;;;2.33;1.58;;;;;;;26.53;33.70;101314.88;5066364;28;20496;-68
2022/07/31 05:25:52;;;;;;;3.53;1.85;;;;;;;26.53;33.95;101312.09;5051998;28;20043;-68
2022/07/31 05:28:20;;;;;;;4.47;2.05;;;;;;;26.55;34.39;101306.34;5054022;28;20095;-68
2022/07/31 05:30:57;;;;;;;3.92;1.90;;;;;;;26.56;33.78;101298.84;5089255;28;20064;-68
2022/07/31 05:33:26;;;;;;;2.90;1.92;;;;;;;26.58;34.03;101305.09;5065746;28;20037;-68
2022/07/31 05:35:55;;;;;;;4.40;2.00;;;;;;;26.58;34.11;101305.94;5055992;28;20036;-68
2022/07/31 05:38:26;;;;;;;3.72;1.77;;;;;;;26.61;34.03;101310.25;5052745;28;20328;-68
2022/07/31 05:41:15;;;;;;;2.88;1.80;;;;;;;26.59;33.65;101315.16;5055018;28;20076;-68
2022/07/31 05:44:01;;;;;;;3.90;2.00;;;;;;;26.58;34.09;101308.72;5068994;28;20171;-68
2022/07/31 05:46:49;;;;;;;3.80;1.70;;;;;;;26.59;33.83;101315.16;5065689;22;20073;-75
2022/07/31 05:49:17;;;;;;;3.47;1.40;;;;;;;26.60;34.04;101316.91;5023257;28;20382;-75
2022/07/31 05:51:52;;;;;;;3.38;1.63;;;;;;;26.59;34.27;101307.69;5032010;28;20045;-75
2022/07/31 05:54:22;;;;;;;3.00;1.60;;;;;;;26.64;34.07;101307.94;5048820;28;20056;-75
2022/07/31 05:57:09;;;;;;;2.83;1.52;;;;;;;26.63;34.40;101308.13;5037507;28;20060;-75
2022/07/31 05:59:41;;;;;;;3.72;1.60;;;;;;;26.66;34.42;101305.84;5012533;28;20042;-75
2022/07/31 06:02:09;;;;;;;2.80;1.70;;;;;;;26.70;34.01;101311.84;5027036;28;20041;-75
2022/07/31 06:05:08;;;;;;;3.10;1.52;;;;;;;26.71;34.62;101306.09;4941432;28;20048;-75
2022/07/31 06:07:36;;;;;;;3.60;1.85;;;;;;;26.77;34.22;101312.78;5006118;28;20461;-76
2022/07/31 06:10:06;;;;;;;3.17;1.67;;;;;;;26.84;34.05;101313.75;5007489;28;20049;-76
2022/07/31 06:12:34;;;;;;;2.50;1.42;;;;;;;26.86;33.97;101306.03;5001560;28;20506;-67
2022/07/31 06:15:02;;;;;;;2.88;1.85;;;;;;;26.92;34.44;101312.78;5021070;28;20049;-67
2022/07/31 06:17:34;;;;;;;2.78;1.45;;;;;;;26.98;34.00;101309.22;5029467;28;20068;-68
2022/07/31 06:20:26;;;;;;;3.15;1.50;;;;;;;27.02;34.35;101310.50;5029665;28;20063;-67
2022/07/31 06:22:54;;;;;;;3.63;1.50;;;;;;;27.10;34.52;101308.47;5022856;28;20046;-67
2022/07/31 06:25:27;;;;;;;3.85;1.55;;;;;;;27.18;34.06;101302.75;5009533;28;20041;-67
2022/07/31 06:28:02;;;;;;;3.13;1.63;;;;;;;27.21;34.56;101296.78;5008817;28;20033;-67
2022/07/31 06:30:37;;;;;;;2.90;1.42;;;;;;;27.29;34.31;101298.56;5010539;28;20053;-67
2022/07/31 06:33:07;;;;;;;2.90;1.50;;;;;;;27.35;34.29;101289.38;5023304;28;20088;-68
2022/07/31 06:35:43;;;;;;;3.15;1.50;;;;;;;27.40;33.87;101291.59;4999460;28;20053;-68
2022/07/31 06:38:44;;;;;;;2.80;1.35;;;;;;;27.45;34.10;101280.69;4993037;28;20050;-70
2022/07/31 06:41:49;;;;;;;3.10;1.50;;;;;;;27.50;33.83;101281.81;4956085;28;20575;-67
2022/07/31 06:44:43;;;;;;;2.97;1.30;;;;;;;27.54;34.03;101291.53;5019603;28;20080;-68
2022/07/31 06:47:32;;;;;;;3.00;1.30;;;;;;;27.58;34.07;101298.44;5023307;28;20057;-67
2022/07/31 06:50:18;;;;;;;2.47;1.23;;;;;;;27.62;34.00;101310.88;5015513;28;20049;-68
2022/07/31 06:52:53;;;;;;;1.98;1.40;;;;;;;27.66;34.01;101305.78;5027406;28;20088;-72
2022/07/31 06:55:23;;;;;;;2.08;1.20;;;;;;;27.69;33.66;101310.06;5023289;28;20049;-73
2022/07/31 06:57:52;;;;;;;3.47;1.33;;;;;;;27.73;33.75;101311.41;5033674;28;20095;-72
2022/07/31 07:00:21;;;;;;;3.13;1.30;;;;;;;27.72;33.52;101306.88;5009880;28;20124;-71
2022/07/31 07:02:51;;;;;;;2.63;1.20;;;;;;;27.73;33.82;101312.28;5030973;28;20091;-71
2022/07/31 07:05:20;;;;;;;1.83;1.17;;;;;;;27.73;33.67;101311.41;5026328;28;20509;-71
2022/07/31 07:07:51;;;;;;;2.35;1.10;;;;;;;27.72;33.63;101306.88;5000843;28;20132;-72
2022/07/31 07:10:20;;;;;;;2.17;1.25;;;;;;;27.71;33.69;101307.94;5025723;28;20045;-72
2022/07/31 07:13:01;;;;;;;1.42;1.10;;;;;;;27.71;33.72;101311.59;5033776;28;20041;-71
2022/07/31 07:15:34;;;;;;;4.32;1.20;;;;;;;27.68;34.17;101311.13;5010462;28;20048;-72
2022/07/31 07:18:03;;;;;;;2.55;1.20;;;;;;;27.66;34.46;101304.91;5010801;28;20136;-71
2022/07/31 07:20:52;;;;;;;2.78;1.13;;;;;;;27.61;34.48;101311.09;5008661;28;20124;-72
2022/07/31 07:23:24;;;;;;;3.10;1.02;;;;;;;27.61;34.59;101305.50;5010952;28;20097;-72
2022/07/31 07:26:27;;;;;;;2.80;1.02;;;;;;;27.51;34.64;101300.25;5004944;28;20122;-72
2022/07/31 07:28:58;;;;;;;3.60;1.15;;;;;;;27.50;34.58;101298.56;5022883;28;20047;-72
2022/07/31 07:31:27;;;;;;;2.05;1.10;;;;;;;27.45;34.85;101297.41;5044757;28;20049;-72
2022/07/31 07:33:56;;;;;;;3.03;1.27;;;;;;;27.41;34.98;101298.91;5027101;28;20553;-72
2022/07/31 07:36:25;;;;;;;3.00;1.50;;;;;;;27.37;35.33;101298.41;5027495;28;20045;-72
2022/07/31 07:39:00;;;;;;;1.95;1.40;;;;;;;27.33;34.98;101288.75;5002601;28;20037;-72
2022/07/31 07:41:29;;;;;;;2.42;1.40;;;;;;;27.32;35.51;101300.09;5031978;28;20103;-72
2022/07/31 07:44:00;;;;;;;2.65;1.48;;;;;;;27.32;35.60;101300.09;5017623;28;20048;-72
2022/07/31 07:46:29;;;;;;;2.70;1.33;;;;;;;27.27;35.85;101283.94;4999604;28;20097;-73
2022/07/31 07:49:01;;;;;;;2.50;1.50;;;;;;;27.29;35.79;101290.19;5025634;28;20105;-72
2022/07/31 07:52:02;;;;;;;2.75;1.23;;;;;;;27.28;36.07;101282.91;5006548;28;20057;-72
2022/07/31 07:54:39;;;;;;;2.13;1.20;;;;;;;27.32;36.02;101275.88;5030701;28;20052;-72
2022/07/31 07:57:46;;;;;;;2.47;1.00;;;;;;;27.34;36.22;101279.31;5036520;28;20049;-72
2022/07/31 08:00:35;;;;;;;1.80;1.00;;;;;;;27.42;35.97;101287.53;4999142;28;20573;-72
2022/07/31 08:03:04;;;;;;;2.97;1.38;;;;;;;27.47;36.08;101287.78;4998995;28;20045;-72
2022/07/31 08:05:52;;;;;;;1.42;1.10;;;;;;;27.52;35.62;101276.88;5034590;28;20049;-72
2022/07/31 08:08:20;;;;;;;2.17;1.20;;;;;;;27.59;35.69;101268.59;5002271;28;20514;-72
2022/07/31 08:10:49;;;;;;;1.92;1.23;;;;;;;27.66;35.97;101271.44;5034435;28;20112;-72
2022/07/31 08:13:25;;;;;;;2.58;1.00;;;;;;;27.74;35.90;101272.16;5003036;28;20037;-72
2022/07/31 08:16:13;;;;;;;2.63;1.25;;;;;;;27.86;36.43;101278.00;5009421;28;20053;-72
2022/07/31 08:18:48;;;;;;;2.03;1.23;;;;;;;27.99;36.12;101269.72;5024394;28;20124;-72
2022/07/31 08:21:17;;;;;;;1.58;1.00;;;;;;;28.13;35.81;101277.09;5010107;28;20046;-72
2022/07/31 08:23:46;;;;;;;2.30;1.00;;;;;;;28.27;35.62;101269.66;5023566;28;20042;-72
2022/07/31 08:26:17;;;;;;;2.28;1.40;;;;;;;28.41;35.59;101263.06;5010707;28;20049;-73
2022/07/31 08:28:47;;;;;;;3.03;1.15;;;;;;;28.54;35.26;101265.91;5009753;28;20053;-72
2022/07/31 08:31:23;;;;;;;2.30;1.38;;;;;;;28.68;35.25;101267.66;4991041;28;20064;-71
2022/07/31 08:34:11;;;;;;;1.67;1.10;;;;;;;28.74;34.89;101271.56;5024453;28;20045;-70
2022/07/31 08:36:59;;;;;;;2.63;1.20;;;;;;;28.83;34.84;101275.00;4995086;28;20454;-71
2022/07/31 08:39:49;;;;;;;2.40;1.20;;;;;;;28.91;34.46;101277.66;4994458;28;20137;-71
2022/07/31 08:42:18;;;;;;;2.28;1.20;;;;;;;28.96;34.34;101280.66;4999270;28;20045;-71
2022/07/31 08:44:46;;;;;;;5.05;1.48;;;;;;;28.99;34.33;101283.03;5029512;28;20046;-71
2022/07/31 08:47:22;;;;;;;2.92;1.48;;;;;;;29.02;34.30;101280.66;4995116;28;20073;-71
2022/07/31 08:49:52;;;;;;;3.42;1.50;;;;;;;29.04;34.13;101284.09;5035117;28;20129;-71
2022/07/31 08:52:23;;;;;;;2.65;1.38;;;;;;;29.09;34.08;101283.44;5042452;28;20045;-71
2022/07/31 08:55:07;;;;;;;1.85;1.10;;;;;;;29.12;34.01;101283.03;5017864;28;20452;-71
2022/07/31 08:57:36;;;;;;;2.30;1.38;;;;;;;29.11;33.88;101273.78;5007528;28;20578;-71
2022/07/31 09:00:06;;;;;;;3.15;1.33;;;;;;;29.13;34.16;101277.25;5013471;28;20132;-71
2022/07/31 09:02:35;;;;;;;2.15;1.13;;;;;;;29.17;34.19;101274.84;5029074;28;20474;-71
2022/07/31 09:05:30;;;;;;;1.52;0.90;;;;;;;29.17;34.22;101276.78;5027326;28;20068;-72
2022/07/31 09:08:11;;;;;;;2.57;1.10;;;;;;;29.18;34.05;101272.91;5011885;28;20053;-72
2022/07/31 09:10:46;;;;;;;2.80;1.17;;;;;;;29.24;34.19;101272.09;5008421;28;20046;-72
2022/07/31 09:13:19;;;;;;;2.38;1.35;;;;;;;29.28;34.18;101274.22;5002644;28;20050;-72
2022/07/31 09:15:51;;;;;;;2.83;1.10;;;;;;;29.30;34.24;101269.28;5007830;28;20510;-72
2022/07/31 09:18:23;;;;;;;1.85;1.20;;;;;;;29.40;34.27;101271.69;5011100;28;20100;-72
2022/07/31 09:21:07;;;;;;;2.17;1.10;;;;;;;29.47;33.96;101264.16;5008327;28;20045;-72
2022/07/31 09:23:44;;;;;;;1.38;1.08;;;;;;;29.61;33.61;101262.19;5021213;28;20041;-72
2022/07/31 09:26:14;;;;;;;2.45;1.20;;;;;;;29.64;33.89;101257.03;5012633;28;20073;-72
2022/07/31 09:28:44;;;;;;;2.13;1.25;;;;;;;29.75;33.62;101261.94;5029964;28;20114;-73
2022/07/31 09:31:13;;;;;;;1.55;1.20;;;;;;;29.82;33.41;101256.31;5012510;28;20101;-72
2022/07/31 09:34:12;;;;;;;2.08;1.10;;;;;;;29.91;33.44;101257.81;4931503;28;20047;-72
2022/07/31 09:36:40;;;;;;;2.00;1.20;;;;;;;29.97;33.16;101258.91;5021336;28;20133;-72
2022/07/31 09:39:28;;;;;;;1.77;1.13;;;;;;;30.01;33.09;101262.97;5027873;28;20545;-73
2022/07/31 09:42:24;;;;;;;2.65;1.50;;;;;;;30.06;32.96;101263.19;5014361;28;20108;-72
2022/07/31 09:44:59;;;;;;;2.58;1.20;;;;;;;30.09;33.00;101258.00;5019507;28;20052;-72
2022/07/31 09:47:28;;;;;;;3.15;1.20;;;;;;;30.13;32.85;101253.69;5019376;28;20383;-72
2022/07/31 09:50:02;;;;;;;2.15;1.30;;;;;;;30.17;33.00;101260.56;5000347;28;20526;-72
2022/07/31 09:52:32;;;;;;;2.67;1.30;;;;;;;30.15;32.75;101264.66;5039654;28;20049;-72
2022/07/31 09:55:02;;;;;;;1.98;1.20;;;;;;;30.19;32.61;101260.34;5000988;28;20054;-72
2022/07/31 09:57:52;;;;;;;2.08;1.27;;;;;;;30.23;32.54;101256.00;5001587;28;20053;-72
2022/07/31 10:00:21;;;;;;;2.60;1.30;;;;;;;30.18;32.00;101265.09;5007317;28;20080;-72
2022/07/31 10:02:52;;;;;;;1.98;1.30;;;;;;;30.18;32.38;101265.09;5040519;28;20117;-72
2022/07/31 10:05:24;;;;;;;2.60;1.27;;;;;;;30.18;32.42;101264.22;5008880;28;20041;-72
2022/07/31 10:07:55;;;;;;;2.00;1.27;;;;;;;30.13;32.23;101261.22;4998712;28;20076;-72
2022/07/31 10:10:43;;;;;;;2.17;1.10;;;;;;;30.11;32.49;101255.84;5034128;28;20047;-72
2022/07/31 10:13:29;;;;;;;2.78;1.27;;;;;;;30.05;32.51;101258.69;5013607;28;20129;-72
2022/07/31 10:15:59;;;;;;;2.05;1.30;;;;;;;30.04;32.45;101252.22;5000441;28;20044;-72
2022/07/31 10:18:55;;;;;;;2.33;1.50;;;;;;;29.99;32.53;101254.78;5026946;28;20509;-72
2022/07/31 10:21:51;;;;;;;1.92;1.30;;;;;;;29.97;32.65;101250.53;5028201;28;20052;-72
2022/07/31 10:24:27;;;;;;;1.83;1.23;;;;;;;29.93;32.84;101243.59;5014715;28;20651;-72
2022/07/31 10:26:59;;;;;;;2.10;1.35;;;;;;;29.89;32.79;101243.19;5035028;28;20111;-72
2022/07/31 10:29:37;;;;;;;2.05;1.50;;;;;;;29.87;32.80;101239.75;4998197;28;20554;-72
2022/07/31 10:32:07;;;;;;;2.20;1.17;;;;;;;29.83;33.34;101235.66;5003540;28;20077;-72
2022/07/31 10:34:40;;;;;;;2.22;1.40;;;;;;;29.83;32.86;101230.91;5030044;28;20123;-72
2022/07/31 10:37:35;;;;;;;1.92;1.27;;;;;;;29.88;32.99;101235.88;4986644;28;20533;-72
2022/07/31 10:40:26;;;;;;;1.67;1.10;;;;;;;29.91;33.21;101224.19;4990571;28;20137;-72
2022/07/31 10:43:17;;;;;;;2.95;1.33;;;;;;;29.96;32.99;101232.84;5009746;28;20064;-72
2022/07/31 10:45:56;;;;;;;1.92;1.30;;;;;;;30.00;33.09;101220.13;5028687;28;20049;-72
2022/07/31 10:48:53;;;;;;;2.10;1.40;;;;;;;30.08;33.14;101225.47;5042728;28;20033;-72
2022/07/31 10:51:49;;;;;;;2.40;1.33;;;;;;;30.20;32.80;101223.72;4997590;28;20125;-75
2022/07/31 10:54:45;;;;;;;2.90;1.50;;;;;;;30.29;32.72;101226.25;4970358;28;20401;-75
2022/07/31 10:57:33;;;;;;;3.33;1.70;;;;;;;30.33;32.75;101233.97;5025497;28;20052;-75
2022/07/31 11:00:48;;;;;;;2.47;1.48;;;;;;;30.39;32.72;101232.25;4997437;28;20049;-75
2022/07/31 11:03:43;;;;;;;2.58;1.30;;;;;;;30.50;32.54;101225.91;5007625;28;20056;-75
2022/07/31 11:06:39;;;;;;;3.72;1.50;;;;;;;30.56;32.50;101223.09;5031588;28;20521;-75
2022/07/31 11:09:27;;;;;;;3.78;1.30;;;;;;;30.58;32.58;101218.13;5019419;28;20064;-75
2022/07/31 11:12:18;;;;;;;2.78;1.35;;;;;;;30.68;32.25;101223.25;5004826;28;20358;-76
2022/07/31 11:15:18;;;;;;;2.40;1.48;;;;;;;30.74;32.06;101227.94;5031522;28;20509;-76
2022/07/31 11:18:12;;;;;;;2.47;1.27;;;;;;;30.80;31.80;101226.22;5038231;28;20135;-75
2022/07/31 11:21:11;;;;;;;2.33;1.33;;;;;;;30.84;32.18;101224.66;5030748;28;20049;-75
2022/07/31 11:23:59;;;;;;;2.80;1.38;;;;;;;30.88;31.69;101221.19;5047772;28;20037;-75
2022/07/31 11:26:33;;;;;;;1.80;1.30;;;;;;;30.91;31.81;101208.63;5023170;28;20109;-75
2022/07/31 11:29:11;;;;;;;2.22;1.40;;;;;;;30.98;32.02;101212.25;5005494;28;20498;-76
2022/07/31 11:32:00;;;;;;;2.67;1.30;;;;;;;30.99;31.92;101206.41;5041869;28;20092;-76
2022/07/31 11:34:28;;;;;;;2.78;1.40;;;;;;;31.03;31.88;101204.03;5040434;28;20044;-75
2022/07/31 11:36:56;;;;;;;2.38;1.27;;;;;;;31.06;31.93;101205.50;5043672;28;20088;-75
2022/07/31 11:39:26;;;;;;;2.47;1.55;;;;;;;31.08;31.76;101200.56;5026861;28;20095;-75
2022/07/31 11:42:04;;;;;;;2.03;1.35;;;;;;;31.10;31.37;101207.66;5042094;28;20041;-75
2022/07/31 11:44:36;;;;;;;3.22;1.40;;;;;;;31.15;31.37;101206.97;5018504;28;20048;-75
2022/07/31 11:47:04;;;;;;;3.45;1.40;;;;;;;31.14;31.24;101205.22;5018945;28;20100;-75
2022/07/31 11:50:03;;;;;;;2.58;1.60;;;;;;;31.17;31.19;101205.66;5045925;22;20136;-82
2022/07/31 11:52:32;;;;;;;2.78;1.40;;;;;;;31.15;31.30;101201.34;5066002;28;20300;-82
2022/07/31 11:55:05;;;;;;;;;;;;;;;30.89;31.84;101202.38;5064327;28;20085;-82
2022/07/31 11:57:36;;;;;;;2.10;1.27;;;;;;;31.15;31.25;101204.16;5054807;28;19921;-82
2022/07/31 12:00:21;;;;;;;1.90;1.40;;;;;;;31.24;31.30;101191.56;5081861;28;20136;-82
2022/07/31 12:02:57;;;;;;;2.88;1.70;;;;;;;31.25;31.17;101179.25;5074992;28;20055;-83